Time;durP1;ratioP1;P1;durP2;ratioP2;P2;SDS_P1;SDS_P2;PMS_P1;PMS_P2;Temp;Humidity;BMP_temperature;BMP_pressure;BME280_temperature;BME280_humidity;BME280_pressure;Samples;Min_cycle;Max_cycle;Signal;HPM_P1;HPM_P2
2022/07/01 00:00:17;;;;;;;1.70;1.05;;;16.00;99.90;;;;;;6191414;23;20383;-86
2022/07/01 00:02:43;;;;;;;2.00;1.33;;;;;;;;;;6190898;23;20052;-87
2022/07/01 00:05:09;;;;;;;2.05;1.00;;;16.00;99.90;;;;;;6189233;23;20001;-88
2022/07/01 00:07:35;;;;;;;1.90;1.02;;;;;;;;;;6189661;23;20114;-88
2022/07/01 00:10:01;;;;;;;3.38;0.90;;;15.90;99.90;;;;;;6166326;23;20005;-89
2022/07/01 00:12:27;;;;;;;3.30;1.15;;;;;;;;;;6166083;23;20009;-87
2022/07/01 00:14:53;;;;;;;3.20;1.35;;;;;;;;;;6191266;23;20005;-90
2022/07/01 00:17:19;;;;;;;2.90;1.13;;;;;;;;;;6190595;23;20025;-87
2022/07/01 00:19:45;;;;;;;2.00;1.00;;;15.70;99.90;;;;;;6190796;23;20511;-86
2022/07/01 00:22:11;;;;;;;1.55;0.90;;;;;;;;;;6166668;23;20018;-89
2022/07/01 00:24:40;;;;;;;2.47;1.20;;;;;;;;;;6191882;23;20010;-86
2022/07/01 00:27:06;;;;;;;1.92;1.10;;;;;;;;;;6192942;23;20005;-87
2022/07/01 00:29:33;;;;;;;2.80;1.00;;;15.90;99.90;;;;;;6184905;23;20413;-86
2022/07/01 00:31:59;;;;;;;1.08;0.90;;;15.80;99.90;;;;;;6157849;23;20009;-85
2022/07/01 00:34:25;;;;;;;1.02;0.70;;;15.90;99.90;;;;;;6160271;23;20060;-86
2022/07/01 00:36:54;;;;;;;2.65;0.93;;;15.90;99.90;;;;;;6159976;23;20006;-84
2022/07/01 00:39:20;;;;;;;5.18;1.10;;;;;;;;;;6159950;23;20058;-86
2022/07/01 00:41:48;;;;;;;2.00;0.95;;;15.80;99.90;;;;;;6161572;23;20005;-86
2022/07/01 00:44:19;;;;;;;1.55;0.95;;;16.00;99.90;;;;;;6161494;23;20006;-85
2022/07/01 00:46:45;;;;;;;2.90;0.93;;;;;;;;;;6161558;23;20050;-86
2022/07/01 00:49:14;;;;;;;2.17;0.90;;;15.90;99.90;;;;;;6184272;23;20005;-85
2022/07/01 00:51:40;;;;;;;1.55;1.02;;;;;;;;;;6160698;23;20009;-88
2022/07/01 00:54:06;;;;;;;2.45;1.05;;;15.80;99.90;;;;;;6160835;23;20009;-87
2022/07/01 00:56:32;;;;;;;2.50;1.17;;;15.80;99.90;;;;;;6158989;23;20132;-85
2022/07/01 00:58:58;;;;;;;2.05;1.10;;;15.80;99.90;;;;;;6158588;23;20006;-85
2022/07/01 01:01:26;;;;;;;2.72;1.10;;;15.80;99.90;;;;;;6158889;23;20012;-84
2022/07/01 01:03:56;;;;;;;2.20;1.15;;;15.80;99.90;;;;;;6157754;23;20015;-85
2022/07/01 01:06:22;;;;;;;1.48;1.05;;;15.80;99.90;;;;;;6158602;23;20033;-84
2022/07/01 01:08:48;;;;;;;2.90;1.08;;;15.90;99.90;;;;;;6157565;23;20013;-85
2022/07/01 01:11:16;;;;;;;2.35;1.00;;;16.40;99.90;;;;;;6158001;23;20013;-88
2022/07/01 01:13:42;;;;;;;2.45;1.17;;;16.40;99.90;;;;;;6159948;23;20028;-84
2022/07/01 01:16:08;;;;;;;2.10;1.20;;;;;;;;;;6158448;23;20006;-83
2022/07/01 01:18:34;;;;;;;3.00;1.08;;;15.90;99.90;;;;;;6183183;23;20002;-87
2022/07/01 01:21:00;;;;;;;1.83;1.10;;;15.90;99.90;;;;;;6159874;23;20348;-83
2022/07/01 01:23:26;;;;;;;4.07;1.40;;;16.10;99.90;;;;;;6159656;23;20018;-84
2022/07/01 01:25:55;;;;;;;2.47;1.00;;;16.20;99.90;;;;;;6159902;23;20035;-85
2022/07/01 01:28:21;;;;;;;2.95;1.10;;;16.20;99.90;;;;;;6161654;23;20012;-85
2022/07/01 01:30:47;;;;;;;1.52;1.30;;;16.00;99.90;;;;;;6159565;23;20001;-87
2022/07/01 01:33:12;;;;;;;1.67;1.05;;;16.00;99.90;;;;;;6160174;23;20009;-87
2022/07/01 01:35:38;;;;;;;2.97;1.13;;;16.00;99.90;;;;;;6158582;23;20032;-84
2022/07/01 01:38:04;;;;;;;3.20;1.30;;;16.10;99.90;;;;;;6159146;23;20010;-86
2022/07/01 01:40:30;;;;;;;3.90;1.48;;;16.10;99.90;;;;;;6158531;23;20554;-87
2022/07/01 01:42:56;;;;;;;1.90;1.20;;;16.80;99.90;;;;;;6158955;23;20009;-85
2022/07/01 01:45:22;;;;;;;2.35;1.08;;;15.90;99.90;;;;;;6158880;23;20005;-85
2022/07/01 01:47:48;;;;;;;1.45;0.98;;;15.90;99.90;;;;;;6158857;23;20012;-88
2022/07/01 01:50:14;;;;;;;2.28;1.30;;;15.80;99.90;;;;;;6158258;23;20018;-86
2022/07/01 01:52:42;;;;;;;2.95;1.30;;;16.00;99.90;;;;;;6159701;23;20213;-85
2022/07/01 01:55:09;;;;;;;2.78;1.20;;;15.80;99.90;;;;;;6162266;23;20057;-84
2022/07/01 01:57:35;;;;;;;2.92;1.35;;;;;;;;;;6158510;23;20449;-87
2022/07/01 02:00:01;;;;;;;1.92;1.30;;;16.00;99.90;;;;;;6183512;23;20022;-87
2022/07/01 02:02:27;;;;;;;3.35;1.20;;;16.00;99.90;;;;;;6159467;23;20515;-85
2022/07/01 02:04:53;;;;;;;3.00;1.50;;;16.00;99.90;;;;;;6161128;23;20005;-85
2022/07/01 02:07:18;;;;;;;3.15;1.30;;;16.10;99.90;;;;;;6159184;23;20098;-85
2022/07/01 02:09:44;;;;;;;3.70;1.30;;;16.10;99.90;;;;;;6158472;23;20064;-85
2022/07/01 02:12:10;;;;;;;2.05;1.40;;;16.20;99.90;;;;;;6158825;23;20151;-87
2022/07/01 02:14:36;;;;;;;1.83;1.10;;;16.10;99.90;;;;;;6158654;23;20343;-86
2022/07/01 02:17:05;;;;;;;3.38;1.30;;;16.00;99.90;;;;;;6158785;23;20021;-88
2022/07/01 02:19:30;;;;;;;3.67;1.50;;;16.00;99.90;;;;;;6158264;23;20001;-85
2022/07/01 02:21:56;;;;;;;2.17;1.30;;;;;;;;;;6159786;23;20008;-86
2022/07/01 02:24:22;;;;;;;3.17;1.40;;;16.00;99.90;;;;;;6182422;23;20018;-87
2022/07/01 02:26:48;;;;;;;1.80;1.40;;;16.00;99.90;;;;;;6181375;23;19994;-87
2022/07/01 02:29:13;;;;;;;2.97;1.58;;;16.00;99.90;;;;;;6165973;23;20456;-85
2022/07/01 02:31:39;;;;;;;3.65;1.58;;;16.00;99.90;;;;;;6158943;23;20014;-86
2022/07/01 02:34:05;;;;;;;2.80;1.60;;;15.90;99.90;;;;;;6158475;23;20013;-86
2022/07/01 02:36:31;;;;;;;3.40;1.60;;;15.90;99.90;;;;;;6160600;23;20001;-86
2022/07/01 02:38:56;;;;;;;3.58;1.40;;;15.90;99.90;;;;;;6159867;23;20005;-86
2022/07/01 02:41:22;;;;;;;5.47;1.65;;;15.80;99.90;;;;;;6159147;23;20089;-86
2022/07/01 02:43:48;;;;;;;4.50;1.55;;;15.90;99.90;;;;;;6159833;23;20029;-87
2022/07/01 02:46:14;;;;;;;4.10;1.45;;;;;;;;;;6160093;23;20009;-87
2022/07/01 02:48:40;;;;;;;2.55;1.42;;;15.90;99.90;;;;;;6184175;23;20092;-87
2022/07/01 02:51:05;;;;;;;2.55;1.30;;;15.90;99.90;;;;;;6159463;23;20010;-87
2022/07/01 02:53:31;;;;;;;3.30;1.40;;;15.90;99.90;;;;;;6158457;23;20029;-87
2022/07/01 02:55:57;;;;;;;3.17;1.55;;;15.90;99.90;;;;;;6161069;23;20001;-87
2022/07/01 02:58:24;;;;;;;1.92;1.30;;;15.90;99.90;;;;;;6158159;23;20025;-86
2022/07/01 03:00:52;;;;;;;2.22;1.30;;;15.90;99.90;;;;;;6161166;23;20001;-86
2022/07/01 03:03:17;;;;;;;2.20;1.20;;;15.90;99.90;;;;;;6161072;23;20021;-87
2022/07/01 03:05:43;;;;;;;2.78;1.20;;;15.80;99.90;;;;;;6160904;23;20010;-86
2022/07/01 03:08:09;;;;;;;2.15;1.10;;;15.90;99.90;;;;;;6162216;23;20025;-88
2022/07/01 03:10:35;;;;;;;2.22;1.10;;;15.70;99.90;;;;;;6159581;23;20009;-88
2022/07/01 03:13:01;;;;;;;1.98;0.90;;;15.80;99.90;;;;;;6161755;23;20048;-86
2022/07/01 03:15:28;;;;;;;4.88;1.30;;;14.50;99.90;;;;;;6159223;23;20054;-87
2022/07/01 03:17:53;;;;;;;3.47;1.00;;;15.90;99.90;;;;;;6160420;23;20030;-83
2022/07/01 03:20:19;;;;;;;2.13;1.25;;;15.90;99.90;;;;;;6161015;23;20009;-85
2022/07/01 03:22:46;;;;;;;3.65;1.40;;;15.90;99.90;;;;;;6159616;23;20017;-84
2022/07/01 03:25:12;;;;;;;2.15;1.00;;;15.90;99.90;;;;;;6159413;23;20032;-83
2022/07/01 03:27:44;;;;;;;1.90;1.13;;;15.80;99.90;;;;;;6160663;23;20005;-83
2022/07/01 03:30:11;;;;;;;2.17;1.20;;;15.80;99.90;;;;;;6158854;23;20015;-84
2022/07/01 03:32:36;;;;;;;3.42;1.40;;;15.80;99.90;;;;;;6159965;23;20008;-85
2022/07/01 03:35:35;;;;;;;3.28;1.10;;;15.80;99.90;;;;;;6159033;23;20344;-85
2022/07/01 03:37:49;;;;;;;2.35;1.30;;;15.80;99.90;;;;;;6161117;23;20002;-84
2022/07/01 03:40:15;;;;;;;5.00;1.60;;;15.80;99.90;;;;;;6158823;23;20047;-83
2022/07/01 03:42:41;;;;;;;2.20;1.10;;;15.70;99.90;;;;;;6158764;23;20340;-85
2022/07/01 03:45:07;;;;;;;3.28;1.10;;;15.70;99.90;;;;;;6160870;23;20001;-83
2022/07/01 03:47:33;;;;;;;2.20;1.10;;;15.70;99.90;;;;;;6158556;23;20002;-85
2022/07/01 03:49:58;;;;;;;2.70;1.10;;;15.60;99.90;;;;;;6161223;23;20136;-86
2022/07/01 03:52:24;;;;;;;2.00;1.08;;;15.70;99.90;;;;;;6159001;23;20016;-83
2022/07/01 03:54:50;;;;;;;4.47;1.30;;;15.50;99.90;;;;;;6159291;23;20016;-85
2022/07/01 03:57:15;;;;;;;3.53;1.00;;;15.50;99.90;;;;;;6159850;23;20032;-86
2022/07/01 03:59:41;;;;;;;1.83;1.15;;;15.50;99.90;;;;;;6160364;23;20452;-85
2022/07/01 04:02:08;;;;;;;2.55;0.93;;;15.50;99.90;;;;;;6159807;23;20012;-84
2022/07/01 04:04:34;;;;;;;1.75;1.10;;;15.50;99.90;;;;;;6159744;23;20032;-85
2022/07/01 04:07:02;;;;;;;4.10;1.10;;;15.50;99.90;;;;;;6158854;23;20021;-82
2022/07/01 04:09:30;;;;;;;2.35;1.20;;;15.40;99.90;;;;;;6161382;23;20035;-89
2022/07/01 04:11:57;;;;;;;2.70;1.15;;;15.40;99.90;;;;;;6160562;23;20010;-83
2022/07/01 04:14:26;;;;;;;1.23;1.00;;;15.40;99.90;;;;;;6159176;23;20009;-85
2022/07/01 04:16:53;;;;;;;4.40;1.42;;;15.40;99.90;;;;;;6159856;23;20456;-84
2022/07/01 04:19:19;;;;;;;3.53;1.35;;;15.30;99.90;;;;;;6133343;23;20009;-86
2022/07/01 04:24:32;;;;;;;3.33;1.20;;;15.40;99.90;;;;;;6160439;23;20024;-87
2022/07/01 04:26:59;;;;;;;2.78;1.25;;;15.30;99.90;;;;;;6160743;23;20313;-85
2022/07/01 04:29:24;;;;;;;1.48;1.00;;;15.20;99.90;;;;;;6158580;23;20013;-86
2022/07/01 04:31:50;;;;;;;2.25;1.17;;;15.30;99.90;;;;;;6158214;23;20540;-85
2022/07/01 04:34:16;;;;;;;1.70;1.20;;;;;;;;;;6183728;23;20049;-85
2022/07/01 04:36:42;;;;;;;2.08;1.17;;;15.30;99.90;;;;;;6183919;23;20347;-85
2022/07/01 04:39:13;;;;;;;2.10;0.98;;;15.30;99.90;;;;;;6159548;23;20005;-85
2022/07/01 04:44:23;;;;;;;2.45;1.00;;;15.40;99.90;;;;;;6165644;23;20040;-86
2022/07/01 04:46:49;;;;;;;2.38;1.17;;;15.30;99.90;;;;;;6164201;23;20002;-86
2022/07/01 04:49:15;;;;;;;2.95;1.45;;;15.40;99.90;;;;;;6164865;23;20029;-86
2022/07/01 04:51:41;;;;;;;2.75;1.50;;;;;;;;;;6164003;23;20384;-83
2022/07/01 04:54:08;;;;;;;2.38;1.50;;;15.40;99.90;;;;;;6189786;23;20010;-85
2022/07/01 04:56:36;;;;;;;4.53;1.40;;;15.50;99.90;;;;;;6164384;23;20321;-87
2022/07/01 04:59:02;;;;;;;3.70;1.42;;;15.50;99.90;;;;;;6162108;23;20410;-85
2022/07/01 05:01:28;;;;;;;3.33;1.20;;;;;;;;;;6159095;23;20348;-85
2022/07/01 05:03:58;;;;;;;5.13;1.52;;;15.50;99.90;;;;;;6185192;23;20005;-85
2022/07/01 05:06:24;;;;;;;4.03;1.40;;;15.50;99.90;;;;;;6161699;23;20006;-87
2022/07/01 05:08:50;;;;;;;2.05;1.10;;;15.60;99.90;;;;;;6161097;23;20005;-85
2022/07/01 05:11:15;;;;;;;4.05;1.40;;;15.70;99.90;;;;;;6163681;23;20013;-85
2022/07/01 05:13:41;;;;;;;3.33;1.58;;;15.70;99.90;;;;;;6161966;23;20088;-84
2022/07/01 05:16:10;;;;;;;3.53;1.27;;;15.70;99.90;;;;;;6158100;23;20311;-82
2022/07/01 05:24:10;;;;;;;2.95;1.50;;;;;;;;;;6158240;23;20460;-84
2022/07/01 05:26:35;;;;;;;3.05;1.20;;;15.70;99.90;;;;;;6182378;23;20002;-82
2022/07/01 05:29:01;;;;;;;2.03;1.40;;;16.20;99.90;;;;;;6158766;23;20056;-85
2022/07/01 05:31:27;;;;;;;5.93;1.63;;;15.90;99.90;;;;;;6157169;23;20005;-84
2022/07/01 05:33:52;;;;;;;3.72;1.55;;;16.00;99.90;;;;;;6161717;23;20017;-86
2022/07/01 05:36:18;;;;;;;8.30;1.50;;;16.20;99.90;;;;;;6159330;23;19998;-86
2022/07/01 05:38:44;;;;;;;4.05;1.38;;;16.40;99.90;;;;;;6160064;23;20096;-85
2022/07/01 05:41:09;;;;;;;2.40;1.40;;;16.50;99.90;;;;;;6156964;23;20016;-86
2022/07/01 05:43:35;;;;;;;5.80;1.45;;;16.30;99.90;;;;;;6157393;23;20005;-85
2022/07/01 05:46:03;;;;;;;4.07;1.20;;;16.10;99.90;;;;;;6160262;23;20021;-86
2022/07/01 05:48:29;;;;;;;5.55;1.50;;;16.50;99.90;;;;;;6161883;23;20013;-86
2022/07/01 05:50:55;;;;;;;2.60;1.20;;;16.50;99.90;;;;;;6163160;23;20316;-87
2022/07/01 05:53:21;;;;;;;3.03;1.20;;;16.50;99.90;;;;;;6161819;23;20001;-88
2022/07/01 05:55:47;;;;;;;3.97;1.20;;;16.60;99.90;;;;;;6162738;23;20001;-84
2022/07/01 05:58:14;;;;;;;3.00;1.38;;;16.70;99.90;;;;;;6162658;23;20005;-86
2022/07/01 06:00:43;;;;;;;2.35;1.30;;;16.60;99.90;;;;;;6167358;23;20005;-88
2022/07/01 06:03:14;;;;;;;1.83;1.10;;;16.70;99.90;;;;;;6166503;23;20012;-88
2022/07/01 06:05:40;;;;;;;;;;;16.70;99.90;;;;;;6174174;23;20527;-87
2022/07/01 06:08:06;;;;;;;2.33;1.27;;;16.70;99.90;;;;;;6195578;23;19907;-85
2022/07/01 06:10:33;;;;;;;1.85;1.30;;;16.70;99.90;;;;;;6171372;23;20092;-86
2022/07/01 06:12:59;;;;;;;2.78;1.33;;;16.80;99.90;;;;;;6169808;23;20008;-86
2022/07/01 06:15:26;;;;;;;3.92;1.58;;;16.90;99.90;;;;;;6166908;23;20005;-87
2022/07/01 06:17:53;;;;;;;2.05;1.15;;;16.80;99.90;;;;;;6163116;23;20004;-87
2022/07/01 06:20:19;;;;;;;3.83;1.75;;;16.70;99.90;;;;;;6164405;23;20008;-85
2022/07/01 06:22:47;;;;;;;3.80;1.42;;;16.60;99.90;;;;;;6165159;23;20029;-89
2022/07/01 06:25:14;;;;;;;2.05;1.40;;;;;;;;;;6164363;23;20440;-88
2022/07/01 06:27:41;;;;;;;3.78;1.60;;;16.30;99.90;;;;;;6165028;23;20452;-87
2022/07/01 06:30:08;;;;;;;3.33;1.30;;;15.20;99.90;;;;;;6141612;23;20013;-87
2022/07/01 06:32:40;;;;;;;4.30;1.42;;;16.30;99.90;;;;;;6140565;23;20040;-88
2022/07/01 06:35:07;;;;;;;2.92;1.50;;;16.30;99.90;;;;;;6165606;23;20005;-89
2022/07/01 06:37:35;;;;;;;3.08;1.42;;;16.30;99.90;;;;;;6162874;23;20029;-86
2022/07/01 06:40:05;;;;;;;2.33;1.20;;;16.30;99.90;;;;;;6164353;23;20475;-87
2022/07/01 06:42:32;;;;;;;4.88;1.55;;;16.30;99.90;;;;;;6163264;23;20005;-88
2022/07/01 06:44:58;;;;;;;4.53;1.40;;;16.20;99.90;;;;;;6165090;23;20005;-88
2022/07/01 06:47:24;;;;;;;3.08;1.20;;;16.40;99.90;;;;;;6163753;23;20014;-89
2022/07/01 06:49:53;;;;;;;2.35;1.20;;;16.50;99.90;;;;;;6163391;23;20006;-91
2022/07/01 06:52:19;;;;;;;3.95;1.20;;;;;;;;;;6161996;23;20001;-88
2022/07/01 06:54:47;;;;;;;1.55;0.95;;;16.70;99.90;;;;;;6186410;23;20110;-88
2022/07/01 06:57:14;;;;;;;5.68;1.30;;;16.80;99.90;;;;;;6163206;23;20009;-89
2022/07/01 06:59:40;;;;;;;4.78;1.15;;;;;;;;;;6162487;23;20002;-88
2022/07/01 07:02:07;;;;;;;2.28;1.10;;;16.90;99.90;;;;;;6185531;23;20017;-88
2022/07/01 07:04:34;;;;;;;1.90;1.20;;;17.20;99.90;;;;;;6181003;23;20005;-89
2022/07/01 07:07:00;;;;;;;3.30;1.65;;;;;;;;;;6168445;23;20088;-86
2022/07/01 07:09:26;;;;;;;4.32;1.10;;;;;;;;;;6190130;23;20009;-88
2022/07/01 07:11:52;;;;;;;4.28;1.10;;;17.60;99.90;;;;;;6189667;23;20048;-87
2022/07/01 07:14:18;;;;;;;3.45;1.15;;;17.70;99.90;;;;;;6164418;23;20028;-88
2022/07/01 07:16:44;;;;;;;2.28;1.30;;;17.70;99.90;;;;;;6166730;23;20005;-87
2022/07/01 07:19:10;;;;;;;2.67;1.17;;;17.70;99.90;;;;;;6166792;23;20105;-87
2022/07/01 07:21:36;;;;;;;2.55;1.30;;;17.60;99.90;;;;;;6167350;23;20060;-89
2022/07/01 08:29:49;;;;;;;4.63;1.20;;;18.90;99.90;;;;;;6140719;23;20025;-82
2022/07/01 08:32:44;;;;;;;3.70;1.00;;;18.90;99.90;;;;;;6194662;23;20029;-83
2022/07/01 08:35:11;;;;;;;4.68;1.98;;;;;;;;;;6210381;23;20005;-83
2022/07/01 08:37:39;;;;;;;3.50;1.13;;;19.10;99.90;;;;;;6210112;23;20005;-86
2022/07/01 08:40:12;;;;;;;3.58;1.00;;;19.30;99.90;;;;;;6209636;23;19990;-82
2022/07/01 08:42:40;;;;;;;2.58;1.00;;;20.50;99.90;;;;;;6185274;23;20009;-85
2022/07/01 08:45:18;;;;;;;5.10;1.48;;;19.60;99.90;;;;;;6214919;23;20011;-83
2022/07/01 08:48:01;;;;;;;3.55;1.20;;;19.60;99.90;;;;;;6208866;23;20064;-83
2022/07/01 08:50:53;;;;;;;2.78;1.08;;;20.20;99.90;;;;;;6209999;23;19985;-84
2022/07/01 08:53:22;;;;;;;4.30;1.48;;;19.50;99.90;;;;;;6185568;23;20020;-83
2022/07/01 08:56:41;;;;;;;2.13;1.00;;;20.20;99.90;;;;;;6211676;23;20008;-83
2022/07/01 08:59:31;;;;;;;2.28;0.80;;;20.40;99.60;;;;;;6211304;23;19993;-85
2022/07/01 09:02:08;;;;;;;2.88;1.20;;;20.50;98.90;;;;;;6212179;23;19985;-83
2022/07/01 09:05:10;;;;;;;2.30;1.20;;;20.60;99.10;;;;;;6235186;23;20040;-83
2022/07/01 09:07:36;;;;;;;2.28;1.20;;;20.00;98.80;;;;;;6211909;23;20048;-84
2022/07/01 09:10:34;;;;;;;3.15;1.10;;;20.40;99.30;;;;;;6210475;23;20009;-83
2022/07/01 09:13:20;;;;;;;3.30;0.95;;;19.60;97.60;;;;;;6209110;23;19997;-84
2022/07/01 09:15:57;;;;;;;3.67;1.15;;;20.20;98.30;;;;;;6185925;23;20013;-84
2022/07/01 09:18:31;;;;;;;2.08;0.68;;;20.90;98.10;;;;;;6211033;23;20008;-84
2022/07/01 09:21:31;;;;;;;3.60;1.27;;;18.70;97.10;;;;;;6209829;23;19997;-85
2022/07/01 09:24:28;;;;;;;1.90;0.80;;;19.70;97.40;;;;;;6212336;23;20028;-85
2022/07/01 09:30:27;;;;;;;5.30;1.27;;;21.40;96.40;;;;;;6216057;23;20040;-83
2022/07/01 09:33:43;;;;;;;1.77;0.80;;;21.50;94.30;;;;;;6240453;23;20028;-83
2022/07/01 09:36:31;;;;;;;5.65;1.30;;;21.20;95.30;;;;;;6241238;23;20065;-83
2022/07/01 09:39:50;;;;;;;2.15;1.20;;;21.00;95.60;;;;;;6218635;23;20053;-82
2022/07/01 09:42:21;;;;;;;2.08;1.10;;;19.60;95.50;;;;;;6241778;23;20046;-82
2022/07/01 09:45:03;;;;;;;4.38;1.52;;;20.70;96.50;;;;;;6219289;23;20012;-81
2022/07/01 09:47:44;;;;;;;2.20;1.15;;;19.80;96.20;;;;;;6217610;23;19995;-82
2022/07/01 09:50:49;;;;;;;1.63;0.80;;;20.90;96.00;;;;;;6242218;23;20009;-84
2022/07/01 09:53:18;;;;;;;2.55;1.00;;;;;;;;;;6216894;23;20057;-83
2022/07/01 09:55:44;;;;;;;3.28;1.30;;;;;;;;;;6244462;23;20000;-85
2022/07/01 09:58:33;;;;;;;3.17;0.98;;;21.00;96.30;;;;;;6218139;23;20052;-83
2022/07/01 10:01:02;;;;;;;2.20;0.82;;;21.40;95.50;;;;;;6217740;23;19985;-85
2022/07/01 10:03:40;;;;;;;3.15;1.10;;;21.50;94.80;;;;;;6218316;23;20000;-83
2022/07/01 10:21:53;;;;;;;1.77;0.80;;;22.30;91.40;;;;;;6211892;23;20064;-85
2022/07/01 10:24:26;;;;;;;2.17;0.80;;;22.40;90.80;;;;;;6217808;23;20023;-82
2022/07/01 10:30:34;;;;;;;3.03;1.58;;;22.40;90.60;;;;;;6163458;23;20003;-83
2022/07/01 10:33:34;;;;;;;3.45;1.20;;;22.70;90.10;;;;;;6161643;23;20018;-82
2022/07/01 10:41:46;;;;;;;4.35;0.80;;;23.10;89.80;;;;;;6177771;23;20009;-85
2022/07/01 11:00:15;;;;;;;3.83;1.30;;;23.10;87.20;;;;;;6188451;23;20028;-83
2022/07/01 11:13:07;;;;;;;6.00;1.20;;;22.50;85.40;;;;;;6185099;23;20005;-85
2022/07/01 11:16:01;;;;;;;2.70;0.85;;;22.50;84.10;;;;;;6213561;23;20024;-85
2022/07/01 11:18:39;;;;;;;2.55;0.85;;;22.20;82.60;;;;;;6189804;23;20005;-83
2022/07/01 11:21:28;;;;;;;4.32;0.88;;;22.10;83.60;;;;;;6187958;23;19993;-83
2022/07/01 11:27:19;;;;;;;2.67;0.70;;;22.20;84.60;;;;;;6199431;23;20027;-83
2022/07/01 11:48:01;;;;;;;4.55;1.45;;;23.30;82.40;;;;;;6170607;23;20233;-86
2022/07/01 12:46:50;;;;;;;3.00;0.90;;;23.30;74.60;;;;;;6177040;23;19996;-86
2022/07/01 13:04:54;;;;;;;4.45;2.25;;;;;;;;;;6193483;23;20013;-83
2022/07/01 13:24:11;;;;;;;2.65;1.00;;;24.10;67.70;;;;;;6208253;23;20008;-83
2022/07/01 14:28:47;;;;;;;2.72;0.90;;;25.00;59.90;;;;;;6124526;23;20020;-90
2022/07/01 14:54:58;;;;;;;1.90;0.60;;;24.40;57.30;;;;;;6146086;23;20023;-86
2022/07/01 15:31:09;;;;;;;1.58;0.70;;;24.40;56.30;;;;;;6211405;23;20005;-86
2022/07/01 15:39:14;;;;;;;3.67;1.17;;;24.80;56.90;;;;;;6182321;23;20101;-86
2022/07/01 16:13:25;;;;;;;1.88;0.98;;;24.20;59.70;;;;;;6171550;23;20061;-88
2022/07/01 16:47:44;;;;;;;2.47;1.10;;;23.10;63.30;;;;;;6177527;23;20054;-85
2022/07/01 16:50:37;;;;;;;4.15;1.08;;;23.00;65.10;;;;;;6176175;23;20025;-85
2022/07/01 16:53:10;;;;;;;2.50;0.88;;;23.10;63.90;;;;;;6164596;23;20021;-84
2022/07/01 16:55:46;;;;;;;3.35;1.00;;;23.20;64.40;;;;;;6205138;23;19998;-84
2022/07/01 16:59:11;;;;;;;2.88;1.00;;;22.80;65.40;;;;;;6207931;23;20044;-86
2022/07/01 17:01:58;;;;;;;2.47;0.95;;;23.50;64.00;;;;;;6209152;23;19991;-87
2022/07/01 17:05:06;;;;;;;3.45;1.20;;;23.40;64.50;;;;;;6184818;23;20009;-88
2022/07/01 17:14:19;;;;;;;6.88;1.45;;;23.80;65.70;;;;;;6212499;23;20000;-86
2022/07/01 17:16:58;;;;;;;3.05;1.20;;;22.80;67.10;;;;;;6185705;23;20009;-85
2022/07/01 17:19:25;;;;;;;3.60;1.15;;;;;;;;;;6186115;23;20001;-85
2022/07/01 18:01:38;;;;;;;2.88;1.63;;;23.40;65.00;;;;;;6146516;23;20013;-89
2022/07/01 20:16:58;;;;;;;3.53;1.00;;;19.80;78.20;;;;;;6129849;23;20032;-83
2022/07/01 21:45:41;;;;;;;2.42;1.23;;;17.50;92.20;;;;;;6135578;23;20278;-86
2022/07/01 21:59:52;;;;;;;3.20;1.58;;;17.30;93.40;;;;;;6167740;23;20021;-82
2022/07/01 22:25:29;;;;;;;3.72;1.48;;;16.80;96.10;;;;;;6121749;23;20022;-84
2022/07/01 22:28:06;;;;;;;2.72;1.58;;;19.20;96.90;;;;;;6144176;23;20002;-82
2022/07/01 22:30:50;;;;;;;3.85;1.50;;;15.30;96.20;;;;;;6141471;23;20002;-80
2022/07/01 22:33:46;;;;;;;3.15;1.60;;;16.70;97.50;;;;;;6137028;23;20009;-82
2022/07/01 22:36:46;;;;;;;3.92;1.42;;;16.90;97.50;;;;;;6172507;23;20010;-81
2022/07/01 22:39:34;;;;;;;4.63;1.50;;;16.70;98.10;;;;;;6173341;23;20010;-83
2022/07/01 22:42:24;;;;;;;3.00;1.48;;;18.80;99.20;;;;;;6124782;23;20006;-82
2022/07/01 22:45:00;;;;;;;3.33;1.30;;;16.60;98.50;;;;;;6126713;23;20021;-82
2022/07/01 22:47:47;;;;;;;3.60;1.30;;;16.20;98.90;;;;;;6173478;23;20024;-82
2022/07/01 22:50:38;;;;;;;2.53;1.30;;;16.00;99.00;;;;;;6174152;23;20012;-82
2022/07/01 22:53:42;;;;;;;2.25;1.15;;;16.40;99.60;;;;;;6174276;23;20014;-81
2022/07/01 22:56:29;;;;;;;3.55;1.60;;;15.30;99.80;;;;;;6134727;23;20012;-82
2022/07/01 22:59:51;;;;;;;5.47;1.40;;;14.80;99.90;;;;;;6123626;23;20014;-81
2022/07/01 23:02:24;;;;;;;4.15;1.50;;;14.70;99.90;;;;;;6175732;23;20018;-79
2022/07/01 23:05:07;;;;;;;5.35;1.45;;;15.70;99.90;;;;;;6175726;23;20009;-81
2022/07/01 23:08:07;;;;;;;4.47;1.40;;;14.30;99.90;;;;;;6130647;23;20032;-82
2022/07/01 23:10:59;;;;;;;3.45;1.40;;;16.00;99.90;;;;;;6154079;23;20013;-82
2022/07/01 23:17:12;;;;;;;;;;;15.90;99.90;;;;;;6173872;23;20029;-82
2022/07/01 23:20:03;;;;;;;3.92;1.52;;;15.80;99.90;;;;;;6150080;23;19949;-83
2022/07/01 23:22:42;;;;;;;3.13;1.30;;;15.10;99.90;;;;;;6146335;23;20037;-82
2022/07/01 23:25:16;;;;;;;2.90;1.40;;;15.70;99.90;;;;;;6147499;23;20013;-82
2022/07/01 23:28:07;;;;;;;;;;;;;;;;;;;;;
